Time;durP1;ratioP1;P1;durP2;ratioP2;P2;SDS_P1;SDS_P2;PMS_P1;PMS_P2;Temp;Humidity;BMP_temperature;BMP_pressure;BME280_temperature;BME280_humidity;BME280_pressure;Samples;Min_cycle;Max_cycle;Signal;HPM_P1;HPM_P2
2022/07/29 00:00:18;;;;;;;8.20;3.27;;;;;;;13.85;73.19;101987.97;1670107;85;21121;-91
2022/07/29 00:03:11;;;;;;;10.15;3.58;;;;;;;13.84;73.33;101986.59;1670083;85;21619;-92
2022/07/29 00:05:41;;;;;;;8.45;3.67;;;;;;;13.82;73.34;101979.92;1651658;85;21082;-86
2022/07/29 00:08:08;;;;;;;12.73;3.60;;;;;;;13.82;73.46;101980.36;1652112;85;21114;-86
2022/07/29 00:10:35;;;;;;;12.63;3.55;;;;;;;13.79;73.43;101979.82;1670013;85;22594;-92
2022/07/29 00:13:01;;;;;;;10.93;4.30;;;;;;;13.76;73.58;101977.98;1652135;85;21588;-91
2022/07/29 00:15:28;;;;;;;11.43;4.22;;;;;;;13.74;73.62;101974.39;1670275;85;21105;-92
2022/07/29 00:17:56;;;;;;;8.00;3.30;;;;;;;13.73;73.80;101971.27;1690227;84;21058;-91
2022/07/29 00:20:23;;;;;;;10.60;3.65;;;;;;;13.71;73.96;101978.26;1680740;84;21142;-87
2022/07/29 00:22:50;;;;;;;6.70;3.52;;;;;;;13.69;74.09;101979.96;1663711;85;21934;-87
2022/07/29 00:25:17;;;;;;;11.25;4.03;;;;;;;13.70;74.15;101980.84;1666295;85;21176;-86
2022/07/29 00:27:45;;;;;;;8.38;3.67;;;;;;;13.69;74.25;101978.64;1656012;85;21098;-86
2022/07/29 00:30:12;;;;;;;7.10;3.15;;;;;;;13.67;74.25;101976.37;1670788;84;21095;-86
2022/07/29 00:32:39;;;;;;;11.50;4.05;;;;;;;13.64;74.28;101981.55;1658466;85;21147;-87
2022/07/29 00:37:53;;;;;;;11.10;4.20;;;;;;;13.58;74.44;101982.69;1649429;86;21082;-87
2022/07/29 00:40:20;;;;;;;11.68;3.95;;;;;;;13.56;74.52;101981.30;1670543;84;21094;-85
2022/07/29 00:42:49;;;;;;;11.48;4.20;;;;;;;13.56;74.58;101982.63;1659821;85;21102;-85
2022/07/29 00:45:16;;;;;;;13.22;3.95;;;;;;;13.53;74.62;101982.95;1643969;85;21679;-86
2022/07/29 00:47:43;;;;;;;10.48;4.33;;;;;;;13.52;74.66;101989.11;1670187;85;22593;-92
2022/07/29 00:50:11;;;;;;;11.85;3.80;;;;;;;13.50;74.78;101979.80;1670887;85;21098;-90
2022/07/29 00:52:39;;;;;;;10.78;4.22;;;;;;;13.49;74.79;101983.27;1671738;85;21599;-91
2022/07/29 00:55:10;;;;;;;9.83;4.58;;;;;;;13.51;74.85;101987.30;1656187;85;21081;-85
2022/07/29 00:57:37;;;;;;;12.25;4.15;;;;;;;13.49;74.86;101983.27;1662463;85;21090;-86
2022/07/29 01:00:08;;;;;;;11.38;4.42;;;;;;;13.46;74.90;101985.84;1657811;85;21765;-86
2022/07/29 01:02:35;;;;;;;14.87;4.53;;;;;;;13.45;74.98;101982.70;1672371;85;21128;-86
2022/07/29 01:05:05;;;;;;;10.38;4.08;;;;;;;13.45;75.04;101983.14;1658959;85;21066;-85
2022/07/29 01:07:34;;;;;;;9.38;3.85;;;;;;;13.45;75.02;101987.11;1662974;85;21722;-86
2022/07/29 01:10:01;;;;;;;8.63;4.40;;;;;;;13.43;75.00;101990.13;1633502;85;21109;-85
2022/07/29 01:12:28;;;;;;;7.78;4.50;;;;;;;13.42;75.01;101987.91;1648874;86;21770;-85
2022/07/29 01:14:55;;;;;;;10.80;4.25;;;;;;;13.40;75.00;101990.91;1662598;85;21611;-86
2022/07/29 01:17:44;;;;;;;11.10;5.30;;;;;;;13.36;75.03;101990.33;1643920;85;21926;-85
2022/07/29 01:20:22;;;;;;;10.08;4.37;;;;;;;13.34;75.08;101990.70;1660095;85;21771;-85
2022/07/29 01:23:12;;;;;;;10.82;4.22;;;;;;;13.35;75.16;101989.87;1668593;85;21170;-87
2022/07/29 01:26:06;;;;;;;7.62;3.60;;;;;;;13.36;75.12;101992.58;1653213;85;22621;-87
2022/07/29 01:29:12;;;;;;;8.08;4.15;;;;;;;13.35;75.11;101989.87;1622465;85;21194;-92
2022/07/29 01:32:03;;;;;;;7.90;3.92;;;;;;;13.32;75.18;101993.30;1670845;85;21062;-85
2022/07/29 01:34:57;;;;;;;7.72;3.72;;;;;;;13.28;75.18;101994.44;1670304;85;21692;-85
2022/07/29 01:37:29;;;;;;;10.48;3.80;;;;;;;13.27;75.27;101993.55;1650620;85;21047;-85
2022/07/29 01:40:00;;;;;;;9.43;3.90;;;;;;;13.26;75.33;101997.02;1671520;85;22563;-91
2022/07/29 01:42:37;;;;;;;8.48;3.90;;;;;;;13.25;75.37;101987.31;1656361;85;21091;-91
2022/07/29 01:45:13;;;;;;;7.70;3.70;;;;;;;13.24;75.37;101992.11;1654078;85;21110;-86
2022/07/29 01:47:50;;;;;;;11.40;4.28;;;;;;;13.21;75.37;101984.98;1664000;85;21082;-88
2022/07/29 01:50:18;;;;;;;14.05;5.05;;;;;;;13.20;75.43;101987.58;1679629;85;21129;-91
2022/07/29 01:52:56;;;;;;;10.00;4.60;;;;;;;13.23;75.56;101983.69;1656141;85;21760;-85
2022/07/29 01:55:25;;;;;;;10.25;4.95;;;;;;;13.28;75.65;101986.51;1655651;85;21111;-91
2022/07/29 01:57:53;;;;;;;7.55;4.30;;;;;;;13.32;75.69;101981.83;1655212;85;21106;-90
2022/07/29 02:00:19;;;;;;;8.38;4.05;;;;;;;13.34;75.65;101979.70;1654878;85;21096;-85
2022/07/29 02:02:47;;;;;;;10.82;4.83;;;;;;;13.36;75.65;101978.43;1654685;85;21075;-90
2022/07/29 02:05:42;;;;;;;13.90;4.70;;;;;;;13.36;75.63;101978.03;1656335;85;21732;-92
2022/07/29 02:08:15;;;;;;;7.33;3.87;;;;;;;13.36;75.62;101965.20;1663105;85;21157;-91
2022/07/29 02:10:42;;;;;;;9.50;4.22;;;;;;;13.34;75.60;101970.88;1663034;85;21087;-90
2022/07/29 02:13:09;;;;;;;13.60;4.22;;;;;;;13.31;75.70;101978.73;1664154;85;21131;-90
2022/07/29 02:15:36;;;;;;;10.90;4.83;;;;;;;13.29;75.75;101981.67;1659979;85;21071;-90
2022/07/29 02:18:07;;;;;;;5.28;3.65;;;;;;;13.29;75.84;101981.67;1674371;85;22457;-90
2022/07/29 02:20:34;;;;;;;9.25;4.37;;;;;;;13.32;75.90;101984.03;1670986;85;21107;-86
2022/07/29 02:23:01;;;;;;;7.22;4.15;;;;;;;13.39;76.03;101982.08;1674396;84;21100;-86
2022/07/29 02:25:28;;;;;;;9.00;4.30;;;;;;;13.46;76.02;101982.27;1674815;85;21129;-86
2022/07/29 02:27:55;;;;;;;10.30;4.78;;;;;;;13.53;76.05;101982.55;1648540;85;21126;-86
2022/07/29 02:30:22;;;;;;;10.58;5.03;;;;;;;13.60;76.04;101975.26;1673458;85;21815;-86
2022/07/29 02:32:49;;;;;;;10.28;4.47;;;;;;;13.69;76.03;101970.70;1641504;85;21146;-91
2022/07/29 02:35:22;;;;;;;12.05;4.58;;;;;;;13.75;75.93;101973.53;1669126;84;21057;-92
2022/07/29 02:38:50;;;;;;;8.48;4.28;;;;;;;13.82;75.87;101970.66;1655195;86;27364;-89
2022/07/29 02:40:18;;;;;;;10.38;4.65;;;;;;;13.86;75.74;101971.23;1659910;84;21617;-86
2022/07/29 02:42:46;;;;;;;10.23;4.78;;;;;;;13.86;75.58;101975.63;1691209;84;21835;-87
2022/07/29 02:45:12;;;;;;;11.48;4.35;;;;;;;13.86;75.48;101974.31;1699556;84;21101;-86
2022/07/29 02:47:46;;;;;;;9.00;4.50;;;;;;;13.87;75.44;101973.44;1690408;84;21098;-86
2022/07/29 02:50:17;;;;;;;7.83;4.53;;;;;;;13.85;75.37;101974.74;1678411;84;21099;-86
2022/07/29 02:52:54;;;;;;;7.67;4.30;;;;;;;13.84;75.38;101979.55;1680062;84;21101;-86
2022/07/29 02:55:33;;;;;;;7.70;4.35;;;;;;;13.84;75.46;101978.22;1681203;84;21254;-92
2022/07/29 02:58:17;;;;;;;9.03;4.50;;;;;;;13.89;75.56;101984.97;1672220;84;21054;-86
2022/07/29 03:00:44;;;;;;;10.88;4.58;;;;;;;13.94;75.51;101984.69;1692292;84;21130;-86
2022/07/29 03:03:16;;;;;;;13.50;5.17;;;;;;;13.99;75.36;101982.66;1672390;84;21089;-92
2022/07/29 03:05:43;;;;;;;7.50;4.15;;;;;;;14.05;75.35;101982.39;1673373;84;21089;-87
2022/07/29 03:08:11;;;;;;;8.55;3.90;;;;;;;14.07;75.18;101988.63;1691023;84;21767;-91
2022/07/29 03:10:40;;;;;;;11.90;5.03;;;;;;;14.10;75.14;101987.41;1671441;84;21151;-86
2022/07/29 03:13:07;;;;;;;6.90;4.40;;;;;;;14.19;75.22;101983.72;1698921;84;21758;-91
2022/07/29 03:15:33;;;;;;;10.23;4.42;;;;;;;14.27;75.04;101977.31;1700258;84;21088;-91
2022/07/29 03:18:00;;;;;;;10.08;4.85;;;;;;;14.34;74.97;101976.61;1695182;84;21552;-91
2022/07/29 03:20:30;;;;;;;9.43;4.47;;;;;;;14.39;74.85;101979.87;1677319;84;21763;-91
2022/07/29 03:22:55;;;;;;;9.90;4.70;;;;;;;14.44;74.70;101981.34;1693399;84;21058;-91
2022/07/29 03:25:23;;;;;;;7.03;4.50;;;;;;;14.48;74.61;101977.92;1692978;84;21080;-92
2022/07/29 03:27:49;;;;;;;9.65;4.10;;;;;;;14.51;74.42;101979.78;1686765;84;21590;-86
2022/07/29 03:30:16;;;;;;;8.93;4.10;;;;;;;14.55;74.39;101980.34;1676819;84;21141;-92
2022/07/29 03:32:43;;;;;;;12.58;4.80;;;;;;;14.62;74.45;101979.69;1672333;84;21805;-91
2022/07/29 03:35:10;;;;;;;8.20;4.47;;;;;;;14.68;74.33;101983.83;1673149;84;21084;-91
2022/07/29 03:37:37;;;;;;;10.98;4.55;;;;;;;14.73;74.28;101978.64;1693938;84;21181;-91
2022/07/29 03:40:10;;;;;;;9.43;4.33;;;;;;;14.85;74.24;101984.73;1650812;85;21099;-91
2022/07/29 03:42:39;;;;;;;9.98;4.78;;;;;;;14.94;74.15;101985.87;1658508;85;21158;-91
2022/07/29 03:45:12;;;;;;;8.63;4.50;;;;;;;15.04;74.04;101987.44;1657205;85;22582;-91
2022/07/29 03:47:44;;;;;;;9.57;4.60;;;;;;;15.10;73.85;101983.62;1665247;85;21109;-87
2022/07/29 03:50:13;;;;;;;9.00;4.58;;;;;;;15.22;73.84;101985.67;1653093;85;21149;-92
2022/07/29 03:52:39;;;;;;;8.45;4.12;;;;;;;15.36;73.73;101989.16;1668016;84;21086;-86
2022/07/29 03:55:07;;;;;;;8.40;3.87;;;;;;;15.46;73.48;101990.71;1629399;87;21125;-91
2022/07/29 03:57:35;;;;;;;6.92;4.05;;;;;;;15.53;73.38;101992.66;1660929;85;21791;-86
2022/07/29 04:00:03;;;;;;;10.93;4.40;;;;;;;15.57;73.27;101975.95;1654593;85;21596;-90
2022/07/29 04:02:29;;;;;;;10.13;4.55;;;;;;;15.78;73.10;101994.61;1653153;85;21130;-86
2022/07/29 04:04:59;;;;;;;8.30;5.10;;;;;;;15.89;73.06;101995.75;1662498;85;21591;-92
2022/07/29 04:07:25;;;;;;;7.28;4.25;;;;;;;16.02;72.82;101992.95;1636946;85;21269;-86
2022/07/29 04:09:52;;;;;;;9.90;4.65;;;;;;;16.12;72.56;101999.84;1649722;85;21771;-91
2022/07/29 04:12:20;;;;;;;7.65;4.17;;;;;;;16.24;72.51;101991.23;1649890;85;21102;-86
2022/07/29 04:14:47;;;;;;;7.25;3.62;;;;;;;16.41;72.42;101994.69;1674092;84;21075;-90
2022/07/29 04:17:14;;;;;;;11.28;3.85;;;;;;;16.79;72.76;101995.44;1664469;84;21097;-86
2022/07/29 04:19:41;;;;;;;8.28;3.87;;;;;;;17.21;72.38;101991.83;1658876;85;21097;-86
2022/07/29 04:22:07;;;;;;;6.50;3.72;;;;;;;17.53;71.56;101985.23;1662190;85;21813;-87
2022/07/29 04:24:34;;;;;;;9.50;3.40;;;;;;;17.78;71.04;101990.52;1653493;85;21618;-87
2022/07/29 04:27:03;;;;;;;7.47;3.70;;;;;;;18.80;73.29;101984.75;1648112;84;21102;-86
2022/07/29 04:29:29;;;;;;;9.50;3.80;;;;;;;20.49;70.55;101986.48;1659398;85;21086;-85
2022/07/29 04:31:56;;;;;;;8.83;3.47;;;;;;;21.74;71.10;101986.23;1665081;85;21089;-86
2022/07/29 04:34:23;;;;;;;7.72;3.60;;;;;;;24.37;70.11;101990.28;1657888;85;21824;-87
2022/07/29 04:36:49;;;;;;;6.30;3.22;;;;;;;26.90;67.44;101986.75;1667383;85;21063;-86
2022/07/29 04:39:17;;;;;;;5.50;3.15;;;;;;;28.98;63.66;101987.78;1655028;84;21094;-90
2022/07/29 04:41:45;;;;;;;4.50;2.72;;;;;;;30.40;60.13;101991.90;1662884;85;21074;-86
2022/07/29 04:44:11;;;;;;;6.12;3.30;;;;;;;31.65;57.13;101996.37;1659971;85;21110;-86
2022/07/29 04:46:38;;;;;;;8.23;3.25;;;;;;;32.74;55.12;101984.06;1651752;85;21731;-88
2022/07/29 04:49:05;;;;;;;8.18;3.27;;;;;;;33.99;52.54;101991.34;1664571;85;21591;-88
2022/07/29 04:51:32;;;;;;;8.03;3.00;;;;;;;34.99;50.40;101992.64;1655476;85;21323;-84
2022/07/29 04:53:59;;;;;;;6.15;3.35;;;;;;;35.79;48.28;101992.46;1646272;85;21166;-87
2022/07/29 04:56:26;;;;;;;6.55;2.95;;;;;;;36.47;46.42;101984.08;1646241;85;21127;-90
2022/07/29 04:58:52;;;;;;;5.50;2.42;;;;;;;36.94;44.62;101987.83;1654841;85;21759;-86
2022/07/29 05:01:19;;;;;;;6.87;2.47;;;;;;;37.28;42.97;101991.05;1641546;86;21601;-85
2022/07/29 05:03:46;;;;;;;5.10;2.17;;;;;;;37.24;42.33;101989.98;1642075;87;21088;-93
2022/07/29 05:06:12;;;;;;;5.90;2.30;;;;;;;37.88;40.92;101991.48;1646326;85;21099;-91
2022/07/29 05:08:39;;;;;;;3.98;2.50;;;;;;;38.38;40.24;101993.84;1665318;84;21062;-86
2022/07/29 05:11:06;;;;;;;4.62;2.15;;;;;;;38.78;38.80;101989.55;1648541;87;22492;-90
2022/07/29 05:13:36;;;;;;;7.00;1.77;;;;;;;39.24;37.76;101995.67;1643567;86;21161;-93
2022/07/29 05:16:03;;;;;;;3.80;1.65;;;;;;;39.61;36.83;101998.34;1654097;85;21127;-92
2022/07/29 05:18:29;;;;;;;3.08;1.70;;;;;;;39.93;36.00;101993.55;1673661;85;21102;-91
2022/07/29 05:20:56;;;;;;;7.20;1.92;;;;;;;40.28;34.99;101999.44;1667020;85;21117;-91
2022/07/29 05:23:25;;;;;;;7.70;1.80;;;;;;;39.74;33.86;101998.73;1655942;85;21729;-84
2022/07/29 05:25:51;;;;;;;3.92;1.82;;;;;;;38.49;33.72;101991.17;1663276;85;21607;-84
2022/07/29 05:28:18;;;;;;;3.42;1.98;;;;;;;38.67;34.04;101996.36;1668291;85;21117;-85
2022/07/29 05:30:45;;;;;;;2.58;1.80;;;;;;;39.28;33.57;101990.81;1675752;85;21058;-85
2022/07/29 05:33:12;;;;;;;2.77;1.60;;;;;;;39.92;32.79;101989.53;1657764;85;21093;-85
2022/07/29 05:35:38;;;;;;;3.22;1.40;;;;;;;40.26;32.15;101989.55;1660442;85;21702;-93
2022/07/29 05:38:05;;;;;;;3.58;1.20;;;;;;;40.86;31.51;101995.66;1656336;85;21182;-85
2022/07/29 05:40:32;;;;;;;5.33;1.25;;;;;;;41.15;30.64;102000.09;1675167;84;21067;-85
2022/07/29 05:43:00;;;;;;;2.20;1.25;;;;;;;41.29;29.83;101992.88;1693151;84;21071;-85
2022/07/29 05:45:27;;;;;;;3.08;1.15;;;;;;;39.87;28.72;101992.64;1697720;84;21089;-85
2022/07/29 05:47:56;;;;;;;2.33;1.22;;;;;;;37.41;28.61;101992.47;1670755;84;21785;-85
2022/07/29 05:50:22;;;;;;;2.12;0.98;;;;;;;34.93;29.26;101983.89;1670142;84;21111;-85
2022/07/29 05:52:49;;;;;;;4.85;1.37;;;;;;;32.59;30.34;101990.77;1678918;84;21110;-85
2022/07/29 05:55:16;;;;;;;1.47;0.90;;;;;;;30.88;31.77;101984.59;1698276;84;21101;-93
2022/07/29 05:57:44;;;;;;;2.92;1.05;;;;;;;29.46;32.93;101988.47;1673272;84;21560;-92
2022/07/29 06:00:12;;;;;;;2.30;1.32;;;;;;;28.22;34.06;101983.30;1671375;84;21808;-85
2022/07/29 06:02:38;;;;;;;2.02;1.00;;;;;;;27.21;35.04;101985.99;1671607;85;21108;-92
2022/07/29 06:05:06;;;;;;;2.00;1.00;;;;;;;26.30;35.92;101979.95;1684882;84;21097;-85
2022/07/29 06:07:32;;;;;;;2.87;0.90;;;;;;;25.45;36.95;101984.67;1678156;84;21514;-92
2022/07/29 06:09:59;;;;;;;2.65;1.10;;;;;;;24.75;37.87;101981.70;1682875;84;21145;-92
2022/07/29 06:12:26;;;;;;;3.65;0.95;;;;;;;24.25;38.61;101987.27;1680787;84;22582;-93
2022/07/29 06:14:52;;;;;;;1.77;0.90;;;;;;;23.70;39.24;101994.12;1672104;84;21058;-92
2022/07/29 06:17:19;;;;;;;1.57;0.80;;;;;;;23.21;40.26;101998.59;1672428;84;21213;-92
2022/07/29 06:19:46;;;;;;;3.22;1.25;;;;;;;22.80;40.83;101995.23;1690394;84;21125;-83
2022/07/29 06:22:14;;;;;;;3.50;0.90;;;;;;;22.50;41.67;101994.53;1669970;84;21078;-92
2022/07/29 06:24:43;;;;;;;1.50;0.98;;;;;;;22.30;42.43;101998.63;1642574;85;21806;-84
2022/07/29 06:27:11;;;;;;;1.67;0.90;;;;;;;22.11;43.05;101996.84;1698779;84;21176;-92
2022/07/29 06:29:38;;;;;;;1.65;1.00;;;;;;;21.96;43.75;102000.91;1684124;84;21069;-84
2022/07/29 06:32:05;;;;;;;2.70;1.10;;;;;;;21.82;44.28;102004.52;1671360;84;21439;-91
2022/07/29 06:34:32;;;;;;;2.83;1.07;;;;;;;21.70;44.54;102001.88;1685811;84;21567;-85
2022/07/29 06:36:59;;;;;;;2.12;1.07;;;;;;;21.60;44.90;102007.66;1699321;84;21762;-84
2022/07/29 06:39:25;;;;;;;2.37;1.20;;;;;;;21.52;45.53;102013.03;1694054;84;21098;-83
2022/07/29 06:41:53;;;;;;;3.08;1.22;;;;;;;21.39;46.22;101996.48;1680502;84;21085;-91
2022/07/29 06:44:20;;;;;;;2.50;1.10;;;;;;;21.39;46.22;101996.48;1688510;84;21086;-92
2022/07/29 06:46:49;;;;;;;4.05;1.85;;;;;;;21.29;46.37;101997.39;1681671;84;21061;-92
2022/07/29 06:49:16;;;;;;;3.35;1.10;;;;;;;21.23;46.61;102004.05;1679754;84;21586;-84
2022/07/29 06:51:43;;;;;;;1.62;0.80;;;;;;;20.92;46.56;102001.34;1688916;84;21067;-92
2022/07/29 06:54:09;;;;;;;3.17;0.90;;;;;;;20.92;46.56;102001.34;1688754;84;21073;-84
2022/07/29 06:56:37;;;;;;;3.02;0.60;;;;;;;20.82;46.67;102002.23;1667748;84;21105;-85
2022/07/29 06:59:05;;;;;;;3.15;0.82;;;;;;;20.76;47.07;102003.11;1670403;84;21079;-84
2022/07/29 07:01:31;;;;;;;1.45;0.80;;;;;;;20.79;47.41;102004.44;1660769;85;22575;-84
2022/07/29 07:03:58;;;;;;;1.22;0.72;;;;;;;20.83;47.69;102006.67;1686546;84;21572;-84
2022/07/29 07:06:25;;;;;;;1.82;0.80;;;;;;;20.77;47.71;102006.22;1690320;83;21059;-92
2022/07/29 07:08:52;;;;;;;2.77;0.78;;;;;;;20.74;47.99;102008.45;1688207;83;21073;-84
2022/07/29 07:11:18;;;;;;;2.40;0.60;;;;;;;20.69;48.11;102007.98;1682099;84;21108;-92
2022/07/29 07:13:45;;;;;;;1.30;0.80;;;;;;;20.68;48.09;102004.39;1677490;83;21768;-93
2022/07/29 07:16:12;;;;;;;1.55;1.00;;;;;;;20.66;48.24;102006.63;1654624;86;21125;-93
2022/07/29 07:18:39;;;;;;;2.00;0.90;;;;;;;20.66;48.44;102005.29;1670105;85;21098;-84
2022/07/29 07:21:05;;;;;;;2.98;0.80;;;;;;;20.75;48.74;102003.98;1682051;84;21169;-84
2022/07/29 07:23:32;;;;;;;1.22;0.60;;;;;;;20.90;48.38;101993.77;1665901;85;21145;-93
2022/07/29 07:25:59;;;;;;;1.77;0.60;;;;;;;20.90;48.38;101993.77;1672808;85;21700;-93
2022/07/29 07:28:26;;;;;;;2.67;0.60;;;;;;;20.92;48.65;101998.67;1677718;84;22076;-92
2022/07/29 07:30:52;;;;;;;1.22;0.75;;;;;;;21.01;48.53;101996.47;1686881;84;21054;-84
2022/07/29 07:33:21;;;;;;;0.88;0.47;;;;;;;21.04;48.42;101993.36;1688245;84;21065;-92
2022/07/29 07:35:51;;;;;;;1.22;0.70;;;;;;;21.09;48.44;101998.24;1674678;84;21085;-84
2022/07/29 07:38:18;;;;;;;1.02;0.60;;;;;;;21.11;48.23;102002.27;1662302;85;21758;-85
2022/07/29 07:40:46;;;;;;;1.77;0.55;;;;;;;21.07;48.33;101994.67;1666335;85;21892;-84
2022/07/29 07:43:15;;;;;;;5.03;0.55;;;;;;;21.18;48.31;101993.81;1653112;86;21126;-84
2022/07/29 07:45:41;;;;;;;1.12;0.60;;;;;;;21.34;48.45;101994.24;1657624;84;21566;-93
2022/07/29 07:48:09;;;;;;;1.10;0.50;;;;;;;21.38;48.31;101963.91;1659800;86;21122;-93
2022/07/29 07:50:37;;;;;;;3.30;0.62;;;;;;;21.69;48.15;101994.72;1671724;85;21831;-93
2022/07/29 07:53:04;;;;;;;0.57;0.40;;;;;;;21.77;47.87;101987.55;1658108;85;21111;-84
2022/07/29 07:55:30;;;;;;;1.95;0.70;;;;;;;21.86;47.86;101994.23;1665564;85;21082;-84
2022/07/29 07:57:58;;;;;;;1.22;0.60;;;;;;;21.88;47.28;101995.12;1665020;84;21082;-84
2022/07/29 08:00:28;;;;;;;0.62;0.40;;;;;;;21.83;47.27;101995.60;1670292;85;21128;-84
2022/07/29 08:02:55;;;;;;;1.17;0.60;;;;;;;21.93;47.38;101988.42;1661486;85;22933;-84
2022/07/29 08:05:22;;;;;;;2.50;0.60;;;;;;;22.14;47.35;101993.71;1663940;85;21633;-93
2022/07/29 08:07:49;;;;;;;1.77;1.22;;;;;;;22.29;47.04;101997.28;1662144;85;21148;-84
2022/07/29 08:10:51;;;;;;;3.72;0.60;;;;;;;22.40;46.99;101998.12;1670691;84;21118;-84
2022/07/29 08:12:45;;;;;;;2.27;0.68;;;;;;;22.56;46.69;102002.08;1649694;84;21086;-92
2022/07/29 08:15:12;;;;;;;1.95;0.57;;;;;;;22.67;46.56;101999.81;1669124;84;21760;-85
2022/07/29 08:17:39;;;;;;;2.47;0.40;;;;;;;22.76;46.15;102001.98;1676171;84;21090;-93
2022/07/29 08:20:07;;;;;;;1.32;0.37;;;;;;;22.76;45.96;101997.96;1675590;84;21102;-93
2022/07/29 08:22:33;;;;;;;1.27;0.45;;;;;;;22.80;45.62;101999.26;1673195;84;21587;-84
2022/07/29 08:25:00;;;;;;;0.90;0.50;;;;;;;22.83;45.33;101999.72;1670225;84;21128;-84
2022/07/29 08:27:28;;;;;;;1.87;0.40;;;;;;;22.80;45.01;102003.28;1635661;85;22328;-92
2022/07/29 08:29:56;;;;;;;1.67;0.70;;;;;;;22.78;45.17;102005.55;1665634;85;21113;-85
2022/07/29 08:32:23;;;;;;;2.22;0.88;;;;;;;22.80;44.98;102010.45;1660114;84;21055;-93
2022/07/29 08:34:50;;;;;;;1.12;0.70;;;;;;;22.78;44.70;102010.45;1676438;84;21069;-84
2022/07/29 08:37:16;;;;;;;1.17;0.57;;;;;;;22.82;44.68;102013.56;1654145;86;21095;-84
2022/07/29 08:39:43;;;;;;;1.57;0.65;;;;;;;22.86;44.63;102011.75;1654140;84;21761;-91
2022/07/29 08:42:11;;;;;;;4.00;0.55;;;;;;;22.83;44.43;102011.80;1652671;86;21063;-92
2022/07/29 08:44:38;;;;;;;0.68;0.50;;;;;;;22.84;44.66;102009.53;1622253;87;21170;-85
2022/07/29 08:47:05;;;;;;;3.83;0.80;;;;;;;22.88;44.24;102009.95;1654641;86;21078;-85
2022/07/29 08:49:35;;;;;;;3.22;0.62;;;;;;;22.88;44.49;102005.92;1667537;84;21121;-85
2022/07/29 08:52:02;;;;;;;3.95;1.20;;;;;;;22.95;44.46;102008.13;1661918;86;21746;-92
2022/07/29 08:54:29;;;;;;;3.27;0.72;;;;;;;22.91;44.22;102005.91;1661155;86;21110;-84
2022/07/29 08:56:56;;;;;;;1.12;0.90;;;;;;;22.98;44.23;102007.66;1659995;86;21573;-92
2022/07/29 08:59:23;;;;;;;0.70;0.47;;;;;;;23.02;44.20;102005.39;1656654;86;21646;-93
2022/07/29 09:01:51;;;;;;;1.00;0.53;;;;;;;23.12;43.98;102008.94;1675715;84;21070;-92
2022/07/29 09:04:18;;;;;;;1.15;0.47;;;;;;;23.19;43.77;102006.65;1659117;86;22819;-85
2022/07/29 09:06:47;;;;;;;1.40;0.40;;;;;;;23.23;43.36;102008.41;1657356;86;21085;-85
2022/07/29 09:09:14;;;;;;;5.72;0.72;;;;;;;23.19;42.80;102005.77;1678833;84;21070;-84
2022/07/29 09:11:41;;;;;;;0.78;0.60;;;;;;;23.11;42.83;102002.26;1648827;86;21056;-91
2022/07/29 09:14:08;;;;;;;3.42;0.62;;;;;;;22.88;42.43;102002.81;1639119;85;21171;-84
2022/07/29 09:16:50;;;;;;;1.35;1.20;;;;;;;22.70;42.84;102002.45;1641656;85;21702;-84
2022/07/29 09:19:21;;;;;;;3.10;1.32;;;;;;;22.69;43.00;102012.77;1666963;85;21102;-92
2022/07/29 09:21:57;;;;;;;1.15;0.95;;;;;;;22.64;42.64;102003.84;1665079;85;21149;-91
2022/07/29 09:24:29;;;;;;;1.32;0.70;;;;;;;22.42;42.73;101996.33;1661051;85;21579;-84
2022/07/29 09:27:01;;;;;;;5.85;0.68;;;;;;;22.48;43.00;101993.61;1659534;85;21141;-85
2022/07/29 09:29:31;;;;;;;3.02;0.62;;;;;;;22.60;43.09;101993.11;1647412;85;21951;-84
2022/07/29 09:31:59;;;;;;;1.90;0.60;;;;;;;22.73;43.09;101997.97;1652781;85;21085;-84
2022/07/29 09:34:31;;;;;;;2.35;1.80;;;;;;;22.86;42.61;101996.98;1653389;85;21134;-91
2022/07/29 09:36:59;;;;;;;1.13;0.80;;;;;;;22.93;42.21;101992.03;1653784;85;21158;-85
2022/07/29 09:39:45;;;;;;;0.78;0.50;;;;;;;22.95;42.17;101994.25;1663276;85;21629;-85
2022/07/29 09:42:07;;;;;;;1.32;0.50;;;;;;;22.95;42.09;101989.34;1641707;86;21836;-84
2022/07/29 09:44:48;;;;;;;0.72;0.50;;;;;;;23.04;42.29;101982.14;1666760;85;21134;-84
2022/07/29 09:47:17;;;;;;;5.45;0.95;;;;;;;23.20;42.48;101980.67;1672865;85;21093;-84
2022/07/29 09:49:57;;;;;;;0.65;0.60;;;;;;;23.34;42.26;101984.61;1657867;85;21110;-91
2022/07/29 09:52:27;;;;;;;3.02;1.27;;;;;;;23.31;41.82;101978.78;1659318;85;21072;-84
2022/07/29 09:55:09;;;;;;;4.53;0.68;;;;;;;23.45;41.86;101980.91;1667967;85;22724;-85
2022/07/29 09:57:46;;;;;;;1.40;0.50;;;;;;;23.61;41.68;101983.02;1682542;85;21600;-91
2022/07/29 10:00:18;;;;;;;0.70;0.40;;;;;;;23.50;41.06;101980.89;1674632;84;21111;-84
2022/07/29 10:02:46;;;;;;;1.75;0.72;;;;;;;23.46;41.27;101977.34;1627648;87;21126;-92
2022/07/29 10:05:25;;;;;;;2.15;1.00;;;;;;;23.59;41.04;101978.55;1649529;87;21102;-91
2022/07/29 10:07:59;;;;;;;3.05;1.90;;;;;;;23.57;41.53;101976.33;1649578;87;21787;-93
2022/07/29 10:10:30;;;;;;;;;;;;;;;23.45;41.71;101971.52;1651162;87;21146;-92
2022/07/29 10:12:59;;;;;;;3.15;0.80;;;;;;;23.26;41.77;101965.87;1648150;87;20499;-93
2022/07/29 10:15:28;;;;;;;2.85;0.72;;;;;;;23.17;42.20;101967.28;1649124;86;21113;-94
2022/07/29 10:18:02;;;;;;;6.62;0.60;;;;;;;22.80;42.31;101971.08;1676753;85;21074;-93
2022/07/29 10:20:29;;;;;;;2.33;0.60;;;;;;;22.51;42.78;101968.12;1671134;85;21792;-92
2022/07/29 10:22:55;;;;;;;1.98;0.70;;;;;;;22.37;43.20;101959.70;1649385;85;21134;-84
2022/07/29 10:25:22;;;;;;;2.25;1.75;;;;;;;22.31;43.31;101960.16;1663018;85;21074;-85
2022/07/29 10:27:51;;;;;;;2.27;1.10;;;;;;;22.25;43.58;101957.51;1652139;85;21072;-84
2022/07/29 10:30:18;;;;;;;1.25;0.80;;;;;;;22.13;43.60;101962.91;1652727;85;21588;-85
2022/07/29 10:33:09;;;;;;;4.05;0.90;;;;;;;21.81;43.50;101962.55;1664320;85;22617;-84
2022/07/29 10:35:51;;;;;;;1.15;0.93;;;;;;;21.53;43.98;101959.91;1661441;85;21102;-84
2022/07/29 10:38:52;;;;;;;3.92;0.70;;;;;;;21.45;44.56;101962.14;1654012;85;21082;-86
2022/07/29 10:42:12;;;;;;;3.67;0.62;;;;;;;21.46;44.64;101943.39;1651100;83;21451;-84
2022/07/29 10:44:40;;;;;;;1.90;1.40;;;;;;;21.58;44.37;101963.03;1649246;86;21091;-91
2022/07/29 10:47:08;;;;;;;4.17;0.70;;;;;;;21.63;44.53;101958.56;1647532;86;21850;-84
2022/07/29 10:49:37;;;;;;;2.50;2.10;;;;;;;21.63;44.53;101958.56;1681326;84;21046;-92
2022/07/29 10:52:09;;;;;;;0.47;0.47;;;;;;;21.67;44.04;101960.34;1680054;83;21153;-84
2022/07/29 10:54:44;;;;;;;0.50;0.50;;;;;;;21.58;43.90;101961.69;1643509;85;21101;-84
2022/07/29 10:57:26;;;;;;;2.35;0.72;;;;;;;21.58;44.05;101960.34;1689667;83;21027;-94
2022/07/29 11:00:16;;;;;;;4.35;1.20;;;;;;;21.64;44.15;101961.67;1708232;83;21878;-84
2022/07/29 11:02:44;;;;;;;2.10;0.82;;;;;;;21.65;43.96;101963.02;1661246;83;21075;-84
2022/07/29 11:05:59;;;;;;;0.93;0.80;;;;;;;21.65;43.96;101963.02;1680025;84;21111;-93
2022/07/29 11:08:34;;;;;;;1.85;0.60;;;;;;;21.61;43.35;101959.90;1682432;85;22309;-93
2022/07/29 11:11:27;;;;;;;2.15;0.60;;;;;;;21.52;42.98;101959.91;1679750;85;21133;-94
2022/07/29 11:13:56;;;;;;;1.37;0.75;;;;;;;21.49;43.09;101959.48;1681855;84;22562;-93
2022/07/29 11:17:02;;;;;;;1.05;0.62;;;;;;;21.48;42.94;101953.66;1687820;83;21035;-92
2022/07/29 11:19:31;;;;;;;0.62;0.50;;;;;;;21.28;42.46;101936.67;1692207;82;21561;-92
2022/07/29 11:21:58;;;;;;;1.02;0.70;;;;;;;21.28;42.46;101936.67;1684051;83;21054;-84
2022/07/29 11:24:30;;;;;;;3.50;0.60;;;;;;;21.31;42.18;101946.94;1683154;83;21090;-84
2022/07/29 11:27:19;;;;;;;0.85;0.60;;;;;;;21.25;42.38;101940.26;1682505;83;22216;-83
2022/07/29 11:29:59;;;;;;;3.10;0.50;;;;;;;21.34;42.55;101944.27;1697436;83;21439;-93
2022/07/29 11:32:26;;;;;;;0.78;0.37;;;;;;;21.43;42.47;101952.73;1700780;83;21034;-91
2022/07/29 11:35:17;;;;;;;1.25;0.70;;;;;;;21.53;42.41;101951.87;1651563;83;21110;-85
2022/07/29 11:37:46;;;;;;;1.82;1.05;;;;;;;21.57;42.16;101943.81;1685332;83;21160;-85
2022/07/29 11:40:24;;;;;;;0.70;0.53;;;;;;;21.53;42.09;101950.53;1707122;83;21750;-94